EDFH/HHN METAR and TAF weather

Enter ICAO airport designator
Station Type Date Time Source
EDFH METAR 2021/08/05 05:20 UTC NOAA

EDFH 050520Z VRB02KT CAVOK 14/12 Q1011


Station Type Date Time Source
EDFH Decoded METAR 2021/08/05 05:20 UTC NOAA

Hahn, Germany (EDFH) 49-57N 007-16E 498M
Aug 05, 2021 - 01:20 AM EDT / 2021.08.05 0520 UTC
Wind: Variable at 2 MPH (2 KT):0
Visibility: greater than 7 mile(s):0
Temperature: 57 F (14 C)
Dew Point: 53 F (12 C)
Relative Humidity: 87%
Pressure (altimeter): 29.85 in. Hg (1011 hPa)
ob: EDFH 050520Z VRB02KT CAVOK 14/12 Q1011
cycle: 5

Station Type Date Time Source
EDFH TAF 2021/08/05 06:27 UTC NOAA

TAF EDFH 050500Z 0506/0606 VRB03KT 9999 FEW020 PROB40
TEMPO 0506/0509 4500 -SHRA BKN008 BKN020TCU
BECMG 0506/0509 22007KT
TEMPO 0509/0519 4000 SHRA BKN014CB PROB30
TEMPO 0513/0516 TSRA BKN020CB
TEMPO 0602/0604 3000 RA BKN008 PROB30
TEMPO 0604/0606 4000 SHRA BKN006 BKN012TCU

Example: see airport list